createdAt,value
2019-03-26T00:01:54.148Z,101430.00
2019-03-26T00:04:22.617Z,101430.84
2019-03-26T00:06:51.044Z,101429.86
2019-03-26T00:09:19.462Z,101433.85
2019-03-26T00:14:21.924Z,101431.17
2019-03-26T00:16:50.348Z,101437.23
2019-03-26T00:19:18.807Z,101440.83
2019-03-26T00:22:06.417Z,101438.95
2019-03-26T00:24:54.195Z,101434.11
2019-03-26T00:27:22.611Z,101425.41
2019-03-26T00:29:51.040Z,101433.64
2019-03-26T00:32:19.514Z,101433.59
2019-03-26T00:34:47.934Z,101433.23
2019-03-26T00:37:16.350Z,101433.65
2019-03-26T00:39:44.821Z,101441.13
2019-03-26T00:42:13.231Z,101450.33
2019-03-26T00:44:41.654Z,101450.72
2019-03-26T00:47:29.632Z,101458.16
2019-03-26T00:49:58.064Z,101445.55
2019-03-26T00:52:26.485Z,101453.48
2019-03-26T00:54:54.936Z,101451.95
2019-03-26T00:57:23.359Z,101449.38
2019-03-26T00:59:51.782Z,101455.40
2019-03-26T01:02:20.287Z,101456.77
2019-03-26T01:04:48.736Z,101451.01
2019-03-26T01:07:17.192Z,101455.45
2019-03-26T01:09:45.692Z,101459.51
2019-03-26T01:12:14.120Z,101458.03
2019-03-26T01:14:42.544Z,101466.03
2019-03-26T01:17:10.995Z,101470.03
2019-03-26T01:48:42.688Z,101479.91
2019-03-26T01:51:30.301Z,101472.52
2019-03-26T01:53:58.750Z,101477.73
2019-03-26T01:56:27.177Z,101480.28
2019-03-26T01:58:55.589Z,101484.37
2019-03-26T02:03:58.426Z,101491.02
2019-03-26T02:06:26.851Z,101494.48
2019-03-26T02:08:55.302Z,101495.80
2019-03-26T02:11:23.723Z,101508.09
2019-03-26T02:13:52.148Z,101504.21
2019-03-26T02:16:20.606Z,101512.93
2019-03-26T02:18:49.027Z,101513.62
2019-03-26T02:21:17.450Z,101514.28
2019-03-26T02:33:23.237Z,101516.50
2019-03-26T02:35:51.699Z,101512.51
2019-03-26T02:38:20.146Z,101513.66
2019-03-26T02:40:48.574Z,101512.67
2019-03-26T02:43:17.021Z,101512.22
2019-03-26T02:46:25.373Z,101506.48
2019-03-26T02:48:53.822Z,101507.84
2019-03-26T02:51:22.244Z,101504.85
2019-03-26T02:53:50.667Z,101508.41
2019-03-26T03:25:10.739Z,101530.10
2019-03-26T03:27:39.166Z,101526.39
2019-03-26T03:30:47.867Z,101521.05
2019-03-26T03:33:16.294Z,101518.18
2019-03-26T03:36:04.183Z,101531.06
2019-03-26T03:38:51.811Z,101533.67
2019-03-26T03:41:20.263Z,101536.53
2019-03-26T03:43:48.691Z,101545.30
2019-03-26T03:49:51.497Z,101549.25
2019-03-26T03:52:59.856Z,101553.67
2019-03-26T03:56:08.237Z,101557.96
2019-03-26T03:59:16.567Z,101565.25
2019-03-26T04:04:19.663Z,101567.17
2019-03-26T04:06:48.084Z,101567.05
2019-03-26T04:09:35.948Z,101570.48
2019-03-26T04:12:23.618Z,101566.54
2019-03-26T04:14:52.077Z,101572.89
2019-03-26T04:17:39.835Z,101575.98
2019-03-26T04:20:27.547Z,101582.14
2019-03-26T04:22:55.968Z,101586.35
2019-03-26T04:25:24.421Z,101586.72
2019-03-26T04:30:45.801Z,101588.52
2019-03-26T04:35:48.412Z,101591.50
2019-03-26T04:38:16.845Z,101590.01
2019-03-26T04:43:19.281Z,101604.23
2019-03-26T04:45:47.668Z,101604.59
2019-03-26T04:48:16.093Z,101609.05
2019-03-26T04:50:44.566Z,101615.94
2019-03-26T04:53:13.006Z,101608.44
2019-03-26T04:55:41.429Z,101606.81
2019-03-26T04:58:09.855Z,101598.27
2019-03-26T05:00:38.311Z,101601.52
2019-03-26T05:03:06.735Z,101607.61
2019-03-26T05:05:35.159Z,101608.84
2019-03-26T05:08:43.551Z,101607.49
2019-03-26T05:11:11.982Z,101612.19
2019-03-26T05:13:40.393Z,101607.44
2019-03-26T05:16:28.111Z,101610.36
2019-03-26T05:18:56.534Z,101616.91
2019-03-26T05:21:24.969Z,101613.08
2019-03-26T05:23:53.420Z,101619.55
2019-03-26T05:26:21.838Z,101619.22
2019-03-26T05:28:50.263Z,101616.44
2019-03-26T05:31:18.726Z,101610.31
2019-03-26T05:33:47.148Z,101616.71
2019-03-26T05:36:15.571Z,101617.67
2019-03-26T05:38:44.024Z,101616.67
2019-03-26T05:41:12.448Z,101616.13
2019-03-26T05:43:40.870Z,101611.16
2019-03-26T05:46:09.325Z,101621.26
2019-03-26T05:48:37.747Z,101619.52
2019-03-26T05:51:25.520Z,101633.63
2019-03-26T05:54:13.258Z,101633.09
2019-03-26T05:59:16.078Z,101635.30
2019-03-26T06:01:44.582Z,101633.41
2019-03-26T06:04:13.035Z,101629.66
2019-03-26T06:06:41.461Z,101633.91
2019-03-26T06:09:09.981Z,101637.20
2019-03-26T06:11:38.441Z,101639.17
2019-03-26T06:14:06.936Z,101636.77
2019-03-26T06:16:38.583Z,101648.03
2019-03-26T06:19:05.580Z,101658.17
2019-03-26T06:21:34.005Z,101660.44
2019-03-26T06:24:02.429Z,101647.74
2019-03-26T06:29:04.955Z,101641.34
2019-03-26T06:31:33.420Z,101638.64
2019-03-26T06:34:01.853Z,101634.39
2019-03-26T06:36:30.272Z,101627.33
2019-03-26T06:39:18.048Z,101629.63
2019-03-26T06:41:46.477Z,101640.72
2019-03-26T06:44:14.903Z,101642.71
2019-03-26T06:46:43.376Z,101644.07
2019-03-26T06:49:11.805Z,101643.41
2019-03-26T06:51:40.238Z,101648.19
2019-03-26T06:57:01.564Z,101649.89
2019-03-26T06:59:30.017Z,101647.98
2019-03-26T07:02:17.643Z,101656.36
2019-03-26T07:05:05.661Z,101656.46
2019-03-26T07:07:53.714Z,101652.31
2019-03-26T07:11:02.084Z,101659.25
2019-03-26T07:13:30.518Z,101671.73
2019-03-26T07:15:59.030Z,101669.91
2019-03-26T07:21:22.003Z,101677.64
2019-03-26T07:23:50.435Z,101678.45
2019-03-26T07:26:38.210Z,101681.03
2019-03-26T07:29:25.967Z,101683.95
2019-03-26T07:31:54.428Z,101694.99
2019-03-26T07:34:22.859Z,101691.84
2019-03-26T07:36:51.284Z,101692.26
2019-03-26T07:41:53.732Z,101691.66
2019-03-26T07:44:22.164Z,101684.37
2019-03-26T07:46:50.614Z,101691.56
2019-03-26T07:49:19.040Z,101696.88
2019-03-26T07:52:06.682Z,101700.04
2019-03-26T07:54:35.222Z,101705.92
2019-03-26T07:57:03.671Z,101708.53
2019-03-26T07:59:32.137Z,101707.69
2019-03-26T08:02:00.558Z,101705.98
2019-03-26T08:04:28.991Z,101706.91
2019-03-26T08:06:57.435Z,101701.25
2019-03-26T08:09:25.917Z,101698.68
2019-03-26T08:11:56.016Z,101706.64
2019-03-26T08:16:58.341Z,101710.24
2019-03-26T08:19:26.770Z,101717.30
2019-03-26T08:21:55.225Z,101719.06
2019-03-26T08:24:23.739Z,101722.11
2019-03-26T08:26:52.300Z,101733.44
2019-03-26T08:32:16.060Z,101736.52
2019-03-26T08:34:46.764Z,101734.22
2019-03-26T08:37:14.714Z,101739.92
2019-03-26T08:39:43.149Z,101739.84
2019-03-26T08:42:11.605Z,101749.07
2019-03-26T08:44:40.128Z,101749.68
2019-03-26T08:47:27.784Z,101759.88
2019-03-26T08:49:56.218Z,101765.06
2019-03-26T08:52:24.653Z,101763.75
2019-03-26T08:57:27.716Z,101763.84
2019-03-26T08:59:56.186Z,101767.19
2019-03-26T09:02:24.618Z,101768.09
2019-03-26T09:04:53.050Z,101766.59
2019-03-26T09:07:21.563Z,101763.77
2019-03-26T09:09:50.016Z,101772.77
2019-03-26T09:12:18.441Z,101781.70
2019-03-26T09:17:20.925Z,101785.69
2019-03-26T09:19:49.359Z,101783.17
2019-03-26T09:24:51.602Z,101788.11
2019-03-26T09:27:20.028Z,101784.56
2019-03-26T09:29:48.493Z,101785.82
2019-03-26T09:32:16.919Z,101789.88
2019-03-26T09:34:45.354Z,101787.69
2019-03-26T09:37:13.812Z,101790.23
2019-03-26T09:39:42.242Z,101785.39
2019-03-26T09:42:10.673Z,101789.32
2019-03-26T09:44:39.135Z,101790.45
2019-03-26T09:47:26.750Z,101792.31
2019-03-26T09:49:55.206Z,101793.70
2019-03-26T09:52:23.638Z,101792.86
2019-03-26T09:54:52.071Z,101794.97
2019-03-26T09:57:20.530Z,101801.02
2019-03-26T09:59:48.959Z,101804.45
2019-03-26T10:02:36.859Z,101797.41
2019-03-26T10:05:45.194Z,101796.97
2019-03-26T10:08:13.722Z,101795.69
2019-03-26T10:10:42.154Z,101800.76
2019-03-26T10:13:10.589Z,101797.69
2019-03-26T10:15:39.116Z,101797.32
2019-03-26T10:18:07.540Z,101790.72
2019-03-26T10:20:55.200Z,101781.55
2019-03-26T10:23:23.630Z,101780.15
2019-03-26T10:25:52.129Z,101778.83
2019-03-26T10:28:20.593Z,101775.61
2019-03-26T10:30:49.024Z,101773.05
2019-03-26T10:33:17.451Z,101775.68
2019-03-26T10:36:05.316Z,101762.77
2019-03-26T10:38:33.738Z,101758.87
2019-03-26T10:41:02.166Z,101764.61
2019-03-26T10:46:24.398Z,101747.86
2019-03-26T10:48:52.852Z,101743.44
2019-03-26T10:51:21.291Z,101742.51
2019-03-26T10:53:49.716Z,101744.30
2019-03-26T10:58:52.161Z,101749.19
2019-03-26T11:01:20.588Z,101748.32
2019-03-26T11:03:49.050Z,101740.79
2019-03-26T11:06:17.547Z,101738.59
2019-03-26T11:11:39.452Z,101724.87
2019-03-26T11:14:07.853Z,101724.85
2019-03-26T11:16:55.504Z,101720.00
2019-03-26T11:19:23.931Z,101713.36
2019-03-26T11:22:11.705Z,101707.63
2019-03-26T11:28:07.485Z,101714.23
2019-03-26T11:30:35.913Z,101704.96
2019-03-26T11:33:23.699Z,101705.42
2019-03-26T11:35:52.122Z,101706.29
2019-03-26T11:38:39.766Z,101698.31
2019-03-26T11:41:27.383Z,101699.19
2019-03-26T11:43:55.836Z,101693.88
2019-03-26T11:46:24.264Z,101677.98
2019-03-26T11:48:52.690Z,101678.81
2019-03-26T11:51:21.154Z,101679.73
2019-03-26T11:53:49.578Z,101687.23
2019-03-26T11:56:17.999Z,101680.56
2019-03-26T11:59:05.646Z,101676.17
2019-03-26T12:01:34.071Z,101673.56
2019-03-26T12:04:02.568Z,101671.81
2019-03-26T12:09:46.420Z,101670.45
2019-03-26T12:14:48.263Z,101675.73
2019-03-26T12:17:16.698Z,101675.73
2019-03-26T12:19:45.189Z,101683.65
2019-03-26T12:22:13.587Z,101671.34
2019-03-26T12:24:42.012Z,101678.02
2019-03-26T12:27:29.871Z,101673.56
2019-03-26T12:29:58.296Z,101669.58
2019-03-26T12:32:26.722Z,101678.41
2019-03-26T12:34:55.251Z,101676.66
2019-03-26T12:37:23.676Z,101675.30
2019-03-26T12:39:59.260Z,101672.19
2019-03-26T12:42:41.493Z,101667.37
2019-03-26T12:45:49.822Z,101668.66
2019-03-26T12:48:18.341Z,101663.41
2019-03-26T12:51:05.964Z,101670.92
2019-03-26T12:53:53.632Z,101666.04
2019-03-26T12:56:22.065Z,101662.00
2019-03-26T12:58:50.476Z,101660.67
2019-03-26T13:01:38.263Z,101657.95
2019-03-26T13:04:26.013Z,101666.86
2019-03-26T13:09:28.126Z,101659.21
2019-03-26T13:12:15.773Z,101656.59
2019-03-26T13:14:44.197Z,101658.38
2019-03-26T13:17:12.635Z,101645.92
2019-03-26T13:22:15.324Z,101646.31
2019-03-26T13:24:43.771Z,101644.09
2019-03-26T13:27:12.241Z,101647.26
2019-03-26T13:29:40.681Z,101639.66
2019-03-26T13:32:09.107Z,101641.01
2019-03-26T13:34:37.571Z,101648.19
2019-03-26T13:37:05.990Z,101639.86
2019-03-26T13:39:34.500Z,101639.38
2019-03-26T13:42:10.148Z,101637.53
2019-03-26T13:44:38.580Z,101629.04
2019-03-26T13:47:07.002Z,101628.71
2019-03-26T13:49:35.472Z,101626.02
2019-03-26T13:52:23.087Z,101614.42
2019-03-26T13:57:25.187Z,101604.59
2019-03-26T13:59:53.621Z,101606.34
2019-03-26T14:02:41.400Z,101616.97
2019-03-26T14:05:49.746Z,101616.18
2019-03-26T14:08:18.197Z,101617.95
2019-03-26T14:11:05.814Z,101616.72
2019-03-26T14:13:34.280Z,101610.42
2019-03-26T14:16:02.786Z,101621.97
2019-03-26T14:18:31.212Z,101619.88
2019-03-26T14:20:59.750Z,101614.52
2019-03-26T14:23:47.367Z,101610.89
2019-03-26T14:29:08.912Z,101609.55
2019-03-26T14:31:56.613Z,101606.03
2019-03-26T14:34:25.061Z,101604.69
2019-03-26T14:36:53.485Z,101599.80
2019-03-26T14:39:21.933Z,101602.92
2019-03-26T14:42:09.551Z,101606.82
2019-03-26T14:44:38.009Z,101609.03
2019-03-26T14:47:06.508Z,101613.92
2019-03-26T14:49:34.944Z,101620.21
2019-03-26T14:52:03.414Z,101621.06
2019-03-26T14:54:31.840Z,101626.00
2019-03-26T14:57:19.538Z,101618.48
2019-03-26T14:59:47.974Z,101620.67
2019-03-26T15:02:16.412Z,101630.41
2019-03-26T15:07:19.115Z,101616.27
2019-03-26T15:09:47.580Z,101612.73
2019-03-26T15:12:16.017Z,101608.29
2019-03-26T15:14:44.443Z,101610.03
2019-03-26T15:19:46.502Z,101612.63
2019-03-26T15:22:14.928Z,101615.38
2019-03-26T15:24:43.375Z,101628.72
2019-03-26T15:27:11.800Z,101625.66
2019-03-26T15:29:40.223Z,101624.31
2019-03-26T15:32:08.686Z,101624.34
2019-03-26T15:34:37.109Z,101619.94
2019-03-26T15:40:00.403Z,101618.59
2019-03-26T15:42:28.815Z,101612.89
2019-03-26T15:45:16.600Z,101620.81
2019-03-26T15:47:45.023Z,101623.48
2019-03-26T15:50:53.471Z,101624.32
2019-03-26T15:53:21.896Z,101620.31
2019-03-26T15:55:50.320Z,101617.67
2019-03-26T16:00:52.668Z,101616.22
2019-03-26T16:03:22.513Z,101621.95
2019-03-26T16:05:51.367Z,101624.24
2019-03-26T16:08:19.798Z,101618.89
2019-03-26T16:10:48.247Z,101615.77
2019-03-26T16:13:16.684Z,101616.66
2019-03-26T16:15:45.335Z,101612.35
2019-03-26T16:18:15.320Z,101618.02
2019-03-26T16:20:43.755Z,101614.06
2019-03-26T16:23:31.418Z,101611.08
2019-03-26T16:25:59.831Z,101613.74
2019-03-26T16:28:28.260Z,101611.53
2019-03-26T16:31:15.966Z,101616.79
2019-03-26T16:34:03.602Z,101621.23
2019-03-26T16:39:45.570Z,101609.75
2019-03-26T16:50:35.414Z,101601.30
2019-03-26T16:53:03.864Z,101605.28
2019-03-26T16:55:51.487Z,101607.92
2019-03-26T16:58:39.142Z,101602.69
2019-03-26T17:01:07.572Z,101606.61
2019-03-26T17:03:36.041Z,101600.02
2019-03-26T17:06:23.718Z,101606.68
2019-03-26T17:08:52.138Z,101609.30
2019-03-26T17:11:20.566Z,101613.69
2019-03-26T17:13:49.031Z,101605.84
2019-03-26T17:16:17.460Z,101616.49
2019-03-26T17:18:45.885Z,101613.81
2019-03-26T17:21:14.351Z,101618.69
2019-03-26T17:23:42.842Z,101620.91
2019-03-26T17:26:30.665Z,101623.13
2019-03-26T17:28:59.116Z,101619.20
2019-03-26T17:31:27.540Z,101611.69
2019-03-26T17:33:56.015Z,101610.31
2019-03-26T17:36:24.437Z,101613.41
2019-03-26T17:38:52.871Z,101618.70
2019-03-26T17:41:21.404Z,101611.64
2019-03-26T17:44:09.017Z,101616.08
2019-03-26T17:49:11.878Z,101616.53
2019-03-26T17:51:40.981Z,101622.28
2019-03-26T17:54:10.474Z,101623.61
2019-03-26T17:56:38.899Z,101620.98
2019-03-26T17:59:07.353Z,101631.59
2019-03-26T18:01:54.965Z,101631.16
2019-03-26T18:07:18.052Z,101628.95
2019-03-26T18:09:46.482Z,101626.74
2019-03-26T18:12:14.911Z,101633.37
2019-03-26T18:14:43.432Z,101632.90
2019-03-26T18:17:11.856Z,101631.58
2019-03-26T18:19:40.280Z,101634.25
2019-03-26T18:22:08.805Z,101628.03
2019-03-26T18:24:37.226Z,101629.79
2019-03-26T18:27:45.913Z,101636.34
2019-03-26T18:30:54.259Z,101634.58
2019-03-26T18:33:22.714Z,101632.00
2019-03-26T18:35:51.139Z,101642.05
2019-03-26T18:38:19.563Z,101638.08
2019-03-26T18:40:48.047Z,101642.12
2019-03-26T18:43:16.458Z,101639.79
2019-03-26T18:45:44.883Z,101640.58
2019-03-26T18:51:06.283Z,101658.56
2019-03-26T18:53:34.744Z,101651.95
2019-03-26T18:56:03.178Z,101649.73
2019-03-26T18:58:31.606Z,101652.08
2019-03-26T19:01:00.078Z,101657.44
2019-03-26T19:03:28.495Z,101656.45
2019-03-26T19:05:56.915Z,101657.37
2019-03-26T19:08:25.387Z,101664.75
2019-03-26T19:10:53.806Z,101666.79
2019-03-26T19:13:22.278Z,101671.42
2019-03-26T19:15:50.782Z,101669.09
2019-03-26T19:18:19.204Z,101672.59
2019-03-26T19:21:01.018Z,101678.02
2019-03-26T19:23:17.837Z,101677.51
2019-03-26T19:26:05.607Z,101685.71
2019-03-26T19:28:34.067Z,101681.64
2019-03-26T19:31:02.493Z,101690.00
2019-03-26T19:33:30.920Z,101685.86
2019-03-26T19:35:59.382Z,101689.72
2019-03-26T19:38:27.814Z,101689.55
2019-03-26T19:40:56.275Z,101694.19
2019-03-26T19:43:24.728Z,101698.20
2019-03-26T19:45:53.150Z,101694.38
2019-03-26T19:48:21.571Z,101699.34
2019-03-26T19:51:09.156Z,101697.23
2019-03-26T19:53:37.581Z,101695.21
2019-03-26T19:56:06.018Z,101702.01
2019-03-26T19:58:34.467Z,101700.38
2019-03-26T20:01:22.244Z,101693.91
2019-03-26T20:06:24.331Z,101700.17
2019-03-26T20:11:26.761Z,101698.22
2019-03-26T20:13:55.229Z,101694.11
2019-03-26T20:16:23.651Z,101684.87
2019-03-26T20:18:52.330Z,101687.41
2019-03-26T20:21:21.197Z,101684.39
2019-03-26T20:23:49.620Z,101684.33
2019-03-26T20:26:18.052Z,101688.31
2019-03-26T20:28:46.503Z,101690.45
2019-03-26T20:31:14.933Z,101691.14
2019-03-26T20:33:43.366Z,101694.21
2019-03-26T20:36:11.816Z,101698.22
2019-03-26T20:38:40.246Z,101701.10
2019-03-26T20:41:08.673Z,101700.22
2019-03-26T20:43:37.797Z,101705.04
2019-03-26T20:46:06.384Z,101709.52
2019-03-26T20:48:34.811Z,101711.97
2019-03-26T20:51:03.289Z,101706.10
2019-03-26T20:53:31.716Z,101709.83
2019-03-26T20:56:00.294Z,101706.59
2019-03-26T20:58:29.294Z,101714.69
2019-03-26T21:00:57.720Z,101715.13
2019-03-26T21:03:26.163Z,101707.86
2019-03-26T21:05:54.609Z,101707.84
2019-03-26T21:08:23.044Z,101705.11
2019-03-26T21:10:51.473Z,101704.21
2019-03-26T21:13:19.934Z,101701.55
2019-03-26T21:15:57.182Z,101714.11
2019-03-26T21:18:18.506Z,101713.51
2019-03-26T21:20:47.083Z,101714.41
2019-03-26T21:23:15.587Z,101717.36
2019-03-26T21:25:44.488Z,101721.98
2019-03-26T21:28:12.998Z,101716.93
2019-03-26T21:30:41.611Z,101726.30
2019-03-26T21:33:10.162Z,101730.17
2019-03-26T21:35:38.740Z,101728.56
2019-03-26T21:38:07.245Z,101739.36
2019-03-26T21:40:35.770Z,101734.13
2019-03-26T21:43:04.480Z,101734.28
2019-03-26T21:45:37.907Z,101734.38
2019-03-26T21:48:08.464Z,101729.70
2019-03-26T21:50:37.332Z,101728.75
2019-03-26T21:53:05.911Z,101729.88
2019-03-26T21:55:34.341Z,101732.55
2019-03-26T21:58:02.804Z,101727.77
2019-03-26T22:00:31.234Z,101731.87
2019-03-26T22:02:59.789Z,101731.45
2019-03-26T22:05:28.242Z,101731.64
2019-03-26T22:07:56.669Z,101738.58
2019-03-26T22:10:25.099Z,101738.19
2019-03-26T22:12:54.007Z,101742.17
2019-03-26T22:15:22.431Z,101737.03
2019-03-26T22:17:50.861Z,101731.91
2019-03-26T22:20:19.312Z,101740.30
2019-03-26T22:22:47.785Z,101735.80
2019-03-26T22:25:16.256Z,101729.23
2019-03-26T22:27:44.830Z,101737.11
2019-03-26T22:30:14.198Z,101742.69
2019-03-26T22:32:42.647Z,101750.31
2019-03-26T22:35:11.271Z,101744.86
2019-03-26T22:37:39.786Z,101748.15
2019-03-26T22:40:09.071Z,101748.23
2019-03-26T22:42:37.805Z,101750.41
2019-03-26T22:45:08.742Z,101751.42
2019-03-26T22:47:40.732Z,101750.95
2019-03-26T22:50:10.155Z,101755.77
2019-03-26T22:52:38.575Z,101757.25
2019-03-26T22:55:09.483Z,101759.59
2019-03-26T22:57:38.758Z,101764.73
2019-03-26T23:00:10.501Z,101763.08
2019-03-26T23:02:39.064Z,101763.95
2019-03-26T23:05:08.948Z,101761.94
2019-03-26T23:07:37.371Z,101763.33
2019-03-26T23:10:07.272Z,101759.53
2019-03-26T23:12:35.838Z,101762.92
2019-03-26T23:15:05.842Z,101764.03
2019-03-26T23:17:34.274Z,101764.93
2019-03-26T23:20:02.727Z,101760.87
2019-03-26T23:22:31.156Z,101770.14
2019-03-26T23:24:59.579Z,101770.84
2019-03-26T23:27:28.103Z,101764.56
2019-03-26T23:29:56.643Z,101765.52
2019-03-26T23:32:25.097Z,101762.00
2019-03-26T23:34:53.553Z,101764.88
2019-03-26T23:37:21.991Z,101765.19
2019-03-26T23:39:50.448Z,101761.17
2019-03-26T23:42:19.300Z,101754.50
2019-03-26T23:44:57.712Z,101755.34
2019-03-26T23:47:17.924Z,101754.59
2019-03-26T23:49:46.915Z,101752.66
2019-03-26T23:52:15.411Z,101741.52
2019-03-26T23:54:43.858Z,101749.74
2019-03-26T23:57:12.679Z,101745.17
2019-03-26T23:59:41.091Z,101747.39
